sensor_id;sensor_type;location;lat;lon;timestamp;pressure;altitude;pressure_sealevel;temperature;humidity
44044;BME280;29709;52.396;16.796;2022-07-25T00:03:19;101917.27;;;19.50;61.03
44044;BME280;29709;52.396;16.796;2022-07-25T00:06:22;101910.34;;;19.46;61.67
44044;BME280;29709;52.396;16.796;2022-07-25T00:09:26;101911.62;;;19.43;61.85
44044;BME280;29709;52.396;16.796;2022-07-25T00:12:31;101910.76;;;19.43;62.00
44044;BME280;29709;52.396;16.796;2022-07-25T00:15:36;101911.20;;;19.46;61.41
44044;BME280;29709;52.396;16.796;2022-07-25T00:18:41;101911.82;;;19.42;62.48
44044;BME280;29709;52.396;16.796;2022-07-25T00:21:46;101910.96;;;19.41;61.35
44044;BME280;29709;52.396;16.796;2022-07-25T00:24:51;101909.45;;;19.39;60.49
44044;BME280;29709;52.396;16.796;2022-07-25T00:28:25;101905.31;;;19.35;60.70
44044;BME280;29709;52.396;16.796;2022-07-25T00:31:28;101905.72;;;19.31;62.79
44044;BME280;29709;52.396;16.796;2022-07-25T00:34:32;101905.63;;;19.25;61.81
44044;BME280;29709;52.396;16.796;2022-07-25T00:37:37;101902.40;;;19.21;63.20
44044;BME280;29709;52.396;16.796;2022-07-25T00:40:42;101897.23;;;19.18;61.77
44044;BME280;29709;52.396;16.796;2022-07-25T00:43:47;101908.50;;;19.10;62.26
44044;BME280;29709;52.396;16.796;2022-07-25T00:46:52;101903.12;;;19.09;63.96
44044;BME280;29709;52.396;16.796;2022-07-25T00:49:57;101907.84;;;19.08;62.66
44044;BME280;29709;52.396;16.796;2022-07-25T00:53:31;101890.42;;;19.06;62.01
44044;BME280;29709;52.396;16.796;2022-07-25T00:56:34;101894.69;;;19.02;63.92
44044;BME280;29709;52.396;16.796;2022-07-25T00:59:37;101892.09;;;19.00;63.82
44044;BME280;29709;52.396;16.796;2022-07-25T01:02:43;101888.56;;;18.92;64.25
44044;BME280;29709;52.396;16.796;2022-07-25T01:05:47;101884.25;;;18.89;64.07
44044;BME280;29709;52.396;16.796;2022-07-25T01:08:54;101886.38;;;18.87;64.78
44044;BME280;29709;52.396;16.796;2022-07-25T01:11:57;101885.12;;;18.90;63.13
44044;BME280;29709;52.396;16.796;2022-07-25T01:15:03;101882.33;;;18.90;64.45
44044;BME280;29709;52.396;16.796;2022-07-25T01:18:37;101876.10;;;18.88;64.98
44044;BME280;29709;52.396;16.796;2022-07-25T01:21:41;101869.67;;;18.87;64.85
44044;BME280;29709;52.396;16.796;2022-07-25T01:24:44;101867.95;;;18.86;63.21
44044;BME280;29709;52.396;16.796;2022-07-25T01:27:49;101873.64;;;18.78;65.29
44044;BME280;29709;52.396;16.796;2022-07-25T01:30:53;101878.55;;;18.76;65.18
44044;BME280;29709;52.396;16.796;2022-07-25T01:33:58;101876.98;;;18.73;63.31
44044;BME280;29709;52.396;16.796;2022-07-25T01:37:03;101875.66;;;18.69;63.99
44044;BME280;29709;52.396;16.796;2022-07-25T01:40:08;101872.42;;;18.66;65.59
44044;BME280;29709;52.396;16.796;2022-07-25T01:43:41;101854.73;;;18.59;65.36
44044;BME280;29709;52.396;16.796;2022-07-25T01:46:45;101859.14;;;18.53;64.49
44044;BME280;29709;52.396;16.796;2022-07-25T01:49:48;101862.98;;;18.52;66.09
44044;BME280;29709;52.396;16.796;2022-07-25T01:52:53;101855.03;;;18.49;65.92
44044;BME280;29709;52.396;16.796;2022-07-25T01:55:59;101858.67;;;18.50;66.34
44044;BME280;29709;52.396;16.796;2022-07-25T01:59:04;101866.37;;;18.48;66.02
44044;BME280;29709;52.396;16.796;2022-07-25T02:02:09;101854.56;;;18.45;66.12
44044;BME280;29709;52.396;16.796;2022-07-25T02:05:14;101850.43;;;18.41;65.99
44044;BME280;29709;52.396;16.796;2022-07-25T02:08:47;101858.98;;;18.40;65.05
44044;BME280;29709;52.396;16.796;2022-07-25T02:11:50;101855.93;;;18.35;66.61
44044;BME280;29709;52.396;16.796;2022-07-25T02:14:54;101857.16;;;18.32;66.94
44044;BME280;29709;52.396;16.796;2022-07-25T02:17:59;101843.45;;;18.31;63.87
44044;BME280;29709;52.396;16.796;2022-07-25T02:21:04;101854.57;;;18.31;66.01
44044;BME280;29709;52.396;16.796;2022-07-25T02:24:12;101842.31;;;18.25;64.89
44044;BME280;29709;52.396;16.796;2022-07-25T02:27:15;101849.69;;;18.18;67.00
44044;BME280;29709;52.396;16.796;2022-07-25T02:30:19;101850.55;;;18.18;66.57
44044;BME280;29709;52.396;16.796;2022-07-25T02:33:53;101845.74;;;18.12;67.24
44044;BME280;29709;52.396;16.796;2022-07-25T02:36:56;101847.01;;;18.10;67.13
44044;BME280;29709;52.396;16.796;2022-07-25T02:39:59;101847.87;;;18.10;66.34
44044;BME280;29709;52.396;16.796;2022-07-25T02:43:05;101854.88;;;18.06;66.58
44044;BME280;29709;52.396;16.796;2022-07-25T02:46:09;101853.36;;;18.04;67.62
44044;BME280;29709;52.396;16.796;2022-07-25T02:49:14;101851.24;;;18.06;67.75
44044;BME280;29709;52.396;16.796;2022-07-25T02:52:20;101842.89;;;18.06;65.95
44044;BME280;29709;52.396;16.796;2022-07-25T02:55:25;101839.91;;;18.07;65.27
44044;BME280;29709;52.396;16.796;2022-07-25T02:58:58;101843.45;;;18.01;66.58
44044;BME280;29709;52.396;16.796;2022-07-25T03:02:01;101836.09;;;17.94;66.76
44044;BME280;29709;52.396;16.796;2022-07-25T03:05:10;101839.54;;;17.96;68.09
44044;BME280;29709;52.396;16.796;2022-07-25T03:08:13;101837.81;;;17.95;67.44
44044;BME280;29709;52.396;16.796;2022-07-25T03:11:16;101829.28;;;17.96;68.58
44044;BME280;29709;52.396;16.796;2022-07-25T03:14:20;101836.76;;;17.96;68.64
44044;BME280;29709;52.396;16.796;2022-07-25T03:17:25;101838.68;;;17.95;66.90
44044;BME280;29709;52.396;16.796;2022-07-25T03:20:30;101833.77;;;17.97;68.66
44044;BME280;29709;52.396;16.796;2022-07-25T03:24:04;101837.63;;;17.96;68.23
44044;BME280;29709;52.396;16.796;2022-07-25T03:27:07;101842.98;;;17.98;67.74
44044;BME280;29709;52.396;16.796;2022-07-25T03:30:14;101835.51;;;17.98;66.99
44044;BME280;29709;52.396;16.796;2022-07-25T03:33:17;101842.98;;;17.98;67.54
44044;BME280;29709;52.396;16.796;2022-07-25T03:36:21;101840.87;;;18.00;66.49
44044;BME280;29709;52.396;16.796;2022-07-25T03:39:33;101834.45;;;17.99;68.87
44044;BME280;29709;52.396;16.796;2022-07-25T03:42:36;101833.58;;;17.99;68.62
44044;BME280;29709;52.396;16.796;2022-07-25T03:45:39;101835.81;;;18.03;67.69
44044;BME280;29709;52.396;16.796;2022-07-25T03:49:09;101821.50;;;18.06;68.15
44044;BME280;29709;52.396;16.796;2022-07-25T03:52:13;101822.56;;;18.05;66.86
44044;BME280;29709;52.396;16.796;2022-07-25T03:55:16;101821.97;;;18.10;68.40
44044;BME280;29709;52.396;16.796;2022-07-25T03:58:21;101816.70;;;18.15;68.57
44044;BME280;29709;52.396;16.796;2022-07-25T04:01:26;101814.69;;;18.24;68.67
44044;BME280;29709;52.396;16.796;2022-07-25T04:04:32;101812.63;;;18.32;66.83
44044;BME280;29709;52.396;16.796;2022-07-25T04:07:38;101811.45;;;18.41;68.16
44044;BME280;29709;52.396;16.796;2022-07-25T04:10:42;101813.48;;;18.48;67.22
44044;BME280;29709;52.396;16.796;2022-07-25T04:14:15;101804.16;;;18.55;65.95
44044;BME280;29709;52.396;16.796;2022-07-25T04:17:18;101794.99;;;18.61;67.93
44044;BME280;29709;52.396;16.796;2022-07-25T04:20:22;101803.92;;;18.71;66.13
44044;BME280;29709;52.396;16.796;2022-07-25T04:23:27;101807.85;;;18.77;65.87
44044;BME280;29709;52.396;16.796;2022-07-25T04:26:32;101815.02;;;18.86;66.38
44044;BME280;29709;52.396;16.796;2022-07-25T04:29:37;101804.59;;;18.95;65.92
44044;BME280;29709;52.396;16.796;2022-07-25T04:32:42;101797.82;;;19.04;66.32
44044;BME280;29709;52.396;16.796;2022-07-25T04:35:47;101800.93;;;19.16;64.96
44044;BME280;29709;52.396;16.796;2022-07-25T04:39:21;101783.55;;;19.14;66.04
44044;BME280;29709;52.396;16.796;2022-07-25T04:42:24;101792.42;;;19.24;65.48
44044;BME280;29709;52.396;16.796;2022-07-25T04:45:28;101791.29;;;19.40;65.78
44044;BME280;29709;52.396;16.796;2022-07-25T04:48:33;101784.95;;;19.52;64.82
44044;BME280;29709;52.396;16.796;2022-07-25T04:51:38;101787.65;;;19.67;64.12
44044;BME280;29709;52.396;16.796;2022-07-25T04:54:43;101777.83;;;19.78;63.82
44044;BME280;29709;52.396;16.796;2022-07-25T04:57:48;101782.83;;;19.89;63.45
44044;BME280;29709;52.396;16.796;2022-07-25T05:00:53;101781.40;;;20.00;63.19
44044;BME280;29709;52.396;16.796;2022-07-25T05:04:28;101774.84;;;20.14;62.77
44044;BME280;29709;52.396;16.796;2022-07-25T05:07:31;101757.70;;;20.24;62.67
44044;BME280;29709;52.396;16.796;2022-07-25T05:10:37;101756.23;;;20.41;61.67
44044;BME280;29709;52.396;16.796;2022-07-25T05:13:40;101753.93;;;20.51;61.29
44044;BME280;29709;52.396;16.796;2022-07-25T05:16:43;101756.96;;;20.63;61.05
44044;BME280;29709;52.396;16.796;2022-07-25T05:19:48;101757.23;;;20.74;60.77
44044;BME280;29709;52.396;16.796;2022-07-25T05:23:01;101757.66;;;20.91;60.36
44044;BME280;29709;52.396;16.796;2022-07-25T05:26:33;101749.52;;;21.16;59.71
44044;BME280;29709;52.396;16.796;2022-07-25T05:29:36;101741.55;;;21.46;59.29
44044;BME280;29709;52.396;16.796;2022-07-25T05:32:40;101738.44;;;21.87;57.68
44044;BME280;29709;52.396;16.796;2022-07-25T05:35:43;101733.61;;;22.21;56.70
44044;BME280;29709;52.396;16.796;2022-07-25T05:38:46;101727.13;;;22.59;55.79
44044;BME280;29709;52.396;16.796;2022-07-25T05:41:49;101721.52;;;22.97;53.60
44044;BME280;29709;52.396;16.796;2022-07-25T05:44:54;101733.91;;;23.32;52.98
44044;BME280;29709;52.396;16.796;2022-07-25T05:47:59;101722.93;;;23.74;52.91
44044;BME280;29709;52.396;16.796;2022-07-25T05:51:04;101720.44;;;24.03;51.73
44044;BME280;29709;52.396;16.796;2022-07-25T05:54:37;101712.38;;;24.43;51.25
44044;BME280;29709;52.396;16.796;2022-07-25T05:57:41;101707.68;;;24.67;50.20
44044;BME280;29709;52.396;16.796;2022-07-25T06:00:44;101711.54;;;24.96;49.71
44044;BME280;29709;52.396;16.796;2022-07-25T06:03:49;101710.39;;;25.15;48.41
44044;BME280;29709;52.396;16.796;2022-07-25T06:06:55;101702.80;;;25.27;48.71
44044;BME280;29709;52.396;16.796;2022-07-25T06:09:59;101705.73;;;25.56;46.62
44044;BME280;29709;52.396;16.796;2022-07-25T06:13:05;101712.71;;;25.65;46.89
44044;BME280;29709;52.396;16.796;2022-07-25T06:16:10;101702.77;;;25.98;44.78
44044;BME280;29709;52.396;16.796;2022-07-25T06:19:43;101700.41;;;26.35;44.74
44044;BME280;29709;52.396;16.796;2022-07-25T06:22:47;101693.67;;;26.48;44.98
44044;BME280;29709;52.396;16.796;2022-07-25T06:25:50;101692.76;;;26.59;43.88
44044;BME280;29709;52.396;16.796;2022-07-25T06:28:55;101689.49;;;26.67;43.68
44044;BME280;29709;52.396;16.796;2022-07-25T06:32:00;101686.12;;;26.82;42.33
44044;BME280;29709;52.396;16.796;2022-07-25T06:35:05;101674.91;;;26.87;42.22
44044;BME280;29709;52.396;16.796;2022-07-25T06:38:10;101673.12;;;26.97;41.94
44044;BME280;29709;52.396;16.796;2022-07-25T06:41:15;101669.47;;;27.14;42.66
44044;BME280;29709;52.396;16.796;2022-07-25T06:44:49;101673.31;;;27.24;41.63
44044;BME280;29709;52.396;16.796;2022-07-25T06:47:52;101658.24;;;27.36;41.25
44044;BME280;29709;52.396;16.796;2022-07-25T06:50:56;101655.48;;;27.41;41.30
44044;BME280;29709;52.396;16.796;2022-07-25T06:54:01;101646.95;;;27.36;40.85
44044;BME280;29709;52.396;16.796;2022-07-25T06:57:06;101649.83;;;27.41;40.42
44044;BME280;29709;52.396;16.796;2022-07-25T07:00:12;101654.18;;;27.48;39.89
44044;BME280;29709;52.396;16.796;2022-07-25T07:03:16;101648.53;;;27.65;40.51
44044;BME280;29709;52.396;16.796;2022-07-25T07:06:21;101640.80;;;27.60;40.24
44044;BME280;29709;52.396;16.796;2022-07-25T07:09:54;101650.82;;;27.68;39.80
44044;BME280;29709;52.396;16.796;2022-07-25T07:13:07;101636.12;;;27.66;38.45
44044;BME280;29709;52.396;16.796;2022-07-25T07:16:11;101642.89;;;27.87;39.36
44044;BME280;29709;52.396;16.796;2022-07-25T07:19:14;101626.95;;;28.03;38.29
44044;BME280;29709;52.396;16.796;2022-07-25T07:22:17;101631.88;;;28.12;37.70
44044;BME280;29709;52.396;16.796;2022-07-25T07:25:21;101613.80;;;28.13;38.15
44044;BME280;29709;52.396;16.796;2022-07-25T07:28:25;101625.06;;;28.08;38.47
44044;BME280;29709;52.396;16.796;2022-07-25T07:31:29;101612.09;;;28.12;37.88
44044;BME280;29709;52.396;16.796;2022-07-25T07:35:00;101625.15;;;28.40;37.77
44044;BME280;29709;52.396;16.796;2022-07-25T07:38:03;101618.47;;;28.52;36.55
44044;BME280;29709;52.396;16.796;2022-07-25T07:41:07;101612.87;;;28.57;36.07
44044;BME280;29709;52.396;16.796;2022-07-25T07:44:12;101625.13;;;28.67;36.66
44044;BME280;29709;52.396;16.796;2022-07-25T07:47:17;101615.55;;;28.73;36.16
44044;BME280;29709;52.396;16.796;2022-07-25T07:50:26;101612.80;;;28.84;36.28
44044;BME280;29709;52.396;16.796;2022-07-25T07:53:30;101606.38;;;28.88;35.19
44044;BME280;29709;52.396;16.796;2022-07-25T07:57:10;101607.23;;;28.89;34.52
44044;BME280;29709;52.396;16.796;2022-07-25T08:00:19;101604.76;;;28.97;34.02
44044;BME280;29709;52.396;16.796;2022-07-25T08:06:21;101595.01;;;29.20;34.35
44044;BME280;29709;52.396;16.796;2022-07-25T08:09:24;101598.81;;;29.46;33.48
44044;BME280;29709;52.396;16.796;2022-07-25T08:12:27;101595.55;;;29.65;33.98
44044;BME280;29709;52.396;16.796;2022-07-25T08:15:31;101557.05;;;29.74;32.34
44044;BME280;29709;52.396;16.796;2022-07-25T08:18:34;101576.16;;;30.09;32.01
44044;BME280;29709;52.396;16.796;2022-07-25T08:21:37;101576.77;;;30.26;31.38
44044;BME280;29709;52.396;16.796;2022-07-25T08:24:41;101578.77;;;30.36;31.44
44044;BME280;29709;52.396;16.796;2022-07-25T08:27:44;101562.90;;;30.45;31.29
44044;BME280;29709;52.396;16.796;2022-07-25T08:30:48;101571.14;;;30.72;31.23
44044;BME280;29709;52.396;16.796;2022-07-25T08:34:18;101573.68;;;30.73;30.26
44044;BME280;29709;52.396;16.796;2022-07-25T08:37:24;101573.98;;;30.77;30.60
44044;BME280;29709;52.396;16.796;2022-07-25T08:40:28;101579.08;;;30.90;29.69
44044;BME280;29709;52.396;16.796;2022-07-25T08:43:34;101579.95;;;30.86;29.49
44044;BME280;29709;52.396;16.796;2022-07-25T08:46:39;101584.75;;;30.95;29.52
44044;BME280;29709;52.396;16.796;2022-07-25T08:49:43;101572.53;;;31.00;29.06
44044;BME280;29709;52.396;16.796;2022-07-25T08:52:49;101565.71;;;31.01;29.08
44044;BME280;29709;52.396;16.796;2022-07-25T08:55:53;101572.26;;;30.96;28.15
44044;BME280;29709;52.396;16.796;2022-07-25T08:59:23;101564.58;;;31.07;28.16
44044;BME280;29709;52.396;16.796;2022-07-25T09:02:27;101554.34;;;31.26;28.17
44044;BME280;29709;52.396;16.796;2022-07-25T09:05:32;101558.00;;;31.37;27.49
44044;BME280;29709;52.396;16.796;2022-07-25T09:08:35;101557.96;;;31.47;27.88
44044;BME280;29709;52.396;16.796;2022-07-25T09:11:38;101545.07;;;31.65;27.62
44044;BME280;29709;52.396;16.796;2022-07-25T09:14:43;101547.30;;;31.78;27.56
44044;BME280;29709;52.396;16.796;2022-07-25T09:17:50;101543.36;;;31.69;27.35
44044;BME280;29709;52.396;16.796;2022-07-25T09:20:56;101541.61;;;31.78;27.35
44044;BME280;29709;52.396;16.796;2022-07-25T09:24:30;101534.96;;;31.98;26.86
44044;BME280;29709;52.396;16.796;2022-07-25T09:27:34;101529.98;;;32.19;26.89
44044;BME280;29709;52.396;16.796;2022-07-25T09:30:39;101526.94;;;32.10;26.34
44044;BME280;29709;52.396;16.796;2022-07-25T09:33:48;101522.95;;;32.11;26.49
44044;BME280;29709;52.396;16.796;2022-07-25T09:36:53;101518.98;;;32.07;26.21
44044;BME280;29709;52.396;16.796;2022-07-25T09:39:56;101508.36;;;32.23;25.89
44044;BME280;29709;52.396;16.796;2022-07-25T09:42:59;101511.57;;;32.11;25.39
44044;BME280;29709;52.396;16.796;2022-07-25T09:46:02;101510.73;;;32.11;25.77
44044;BME280;29709;52.396;16.796;2022-07-25T09:49:06;101512.29;;;32.27;25.30
44044;BME280;29709;52.396;16.796;2022-07-25T09:52:37;101510.60;;;32.31;25.81
44044;BME280;29709;52.396;16.796;2022-07-25T09:55:40;101512.46;;;32.46;25.29
44044;BME280;29709;52.396;16.796;2022-07-25T09:58:44;101501.76;;;32.62;25.96
44044;BME280;29709;52.396;16.796;2022-07-25T10:01:59;101496.68;;;32.59;25.12
44044;BME280;29709;52.396;16.796;2022-07-25T10:05:13;101495.31;;;32.51;24.84
44044;BME280;29709;52.396;16.796;2022-07-25T10:08:17;101493.77;;;32.35;24.57
44044;BME280;29709;52.396;16.796;2022-07-25T10:18:14;101479.36;;;32.21;23.55
44044;BME280;29709;52.396;16.796;2022-07-25T10:21:17;101476.16;;;32.33;25.02
44044;BME280;29709;52.396;16.796;2022-07-25T10:24:20;101467.16;;;32.50;24.31
44044;BME280;29709;52.396;16.796;2022-07-25T10:27:38;101460.05;;;32.52;24.64
44044;BME280;29709;52.396;16.796;2022-07-25T10:30:43;101458.90;;;32.53;24.12
44044;BME280;29709;52.396;16.796;2022-07-25T10:34:11;101461.37;;;32.60;24.68
44044;BME280;29709;52.396;16.796;2022-07-25T10:37:18;101460.84;;;32.87;24.31
44044;BME280;29709;52.396;16.796;2022-07-25T10:43:44;101440.53;;;33.17;24.30
44044;BME280;29709;52.396;16.796;2022-07-25T10:46:48;101433.22;;;33.35;23.87
44044;BME280;29709;52.396;16.796;2022-07-25T10:49:57;101432.28;;;33.40;24.56
44044;BME280;29709;52.396;16.796;2022-07-25T10:53:01;101424.05;;;33.38;23.65
44044;BME280;29709;52.396;16.796;2022-07-25T10:59:31;101420.29;;;33.19;23.91
44044;BME280;29709;52.396;16.796;2022-07-25T11:02:35;101414.98;;;33.31;24.43
44044;BME280;29709;52.396;16.796;2022-07-25T11:06:03;101417.98;;;33.21;23.49
44044;BME280;29709;52.396;16.796;2022-07-25T11:12:22;101407.24;;;33.13;23.96
44044;BME280;29709;52.396;16.796;2022-07-25T11:15:25;101405.73;;;33.20;22.81
44044;BME280;29709;52.396;16.796;2022-07-25T11:18:39;101395.41;;;33.24;23.46
44044;BME280;29709;52.396;16.796;2022-07-25T11:21:49;101393.77;;;33.42;23.62
44044;BME280;29709;52.396;16.796;2022-07-25T11:24:53;101392.92;;;33.61;22.58
44044;BME280;29709;52.396;16.796;2022-07-25T11:27:59;101383.06;;;33.53;22.41
44044;BME280;29709;52.396;16.796;2022-07-25T11:31:04;101372.92;;;33.47;22.62
44044;BME280;29709;52.396;16.796;2022-07-25T11:34:35;101379.15;;;33.49;22.61
44044;BME280;29709;52.396;16.796;2022-07-25T11:37:41;101365.65;;;33.54;22.90
44044;BME280;29709;52.396;16.796;2022-07-25T11:40:45;101368.97;;;33.62;22.82
44044;BME280;29709;52.396;16.796;2022-07-25T11:43:48;101356.45;;;33.76;22.73
44044;BME280;29709;52.396;16.796;2022-07-25T11:46:51;101362.15;;;33.95;21.60
44044;BME280;29709;52.396;16.796;2022-07-25T11:49:57;101353.16;;;33.88;22.44
44044;BME280;29709;52.396;16.796;2022-07-25T11:53:03;101349.05;;;33.94;22.56
44044;BME280;29709;52.396;16.796;2022-07-25T11:56:15;101344.83;;;33.92;22.12
44044;BME280;29709;52.396;16.796;2022-07-25T11:59:19;101341.98;;;33.92;22.68
44044;BME280;29709;52.396;16.796;2022-07-25T12:02:48;101341.02;;;33.96;22.49
44044;BME280;29709;52.396;16.796;2022-07-25T12:05:53;101328.84;;;34.23;22.22
44044;BME280;29709;52.396;16.796;2022-07-25T12:08:56;101330.66;;;34.33;21.86
44044;BME280;29709;52.396;16.796;2022-07-25T12:12:03;101314.17;;;34.30;21.71
44044;BME280;29709;52.396;16.796;2022-07-25T12:15:11;101303.28;;;34.32;22.25
44044;BME280;29709;52.396;16.796;2022-07-25T12:18:16;101298.02;;;34.39;22.33
44044;BME280;29709;52.396;16.796;2022-07-25T12:21:20;101294.08;;;34.35;21.55
44044;BME280;29709;52.396;16.796;2022-07-25T12:24:26;101304.33;;;34.36;21.29
44044;BME280;29709;52.396;16.796;2022-07-25T12:27:30;101301.48;;;34.36;21.77
44044;BME280;29709;52.396;16.796;2022-07-25T12:30:58;101295.45;;;34.24;22.02
44044;BME280;29709;52.396;16.796;2022-07-25T12:34:02;101280.13;;;34.33;21.72
44044;BME280;29709;52.396;16.796;2022-07-25T12:37:05;101274.95;;;34.35;21.76
44044;BME280;29709;52.396;16.796;2022-07-25T12:40:10;101265.34;;;34.31;21.64
44044;BME280;29709;52.396;16.796;2022-07-25T12:43:13;101268.73;;;34.47;21.18
44044;BME280;29709;52.396;16.796;2022-07-25T12:46:16;101267.55;;;34.34;21.38
44044;BME280;29709;52.396;16.796;2022-07-25T12:49:20;101260.63;;;34.40;20.99
44044;BME280;29709;52.396;16.796;2022-07-25T12:52:23;101251.74;;;34.42;21.61
44044;BME280;29709;52.396;16.796;2022-07-25T12:55:26;101241.47;;;34.55;21.78
44044;BME280;29709;52.396;16.796;2022-07-25T12:58:29;101238.96;;;34.39;21.67
44044;BME280;29709;52.396;16.796;2022-07-25T13:01:58;101236.49;;;34.33;21.34
44044;BME280;29709;52.396;16.796;2022-07-25T13:05:01;101227.18;;;34.27;21.42
44044;BME280;29709;52.396;16.796;2022-07-25T13:08:07;101231.76;;;34.42;21.25
44044;BME280;29709;52.396;16.796;2022-07-25T13:11:10;101218.54;;;34.46;21.44
44044;BME280;29709;52.396;16.796;2022-07-25T13:14:17;101219.61;;;34.50;21.53
44044;BME280;29709;52.396;16.796;2022-07-25T13:17:20;101209.65;;;34.48;20.69
44044;BME280;29709;52.396;16.796;2022-07-25T13:20:23;101203.52;;;34.54;21.32
44044;BME280;29709;52.396;16.796;2022-07-25T13:23:26;101199.69;;;34.59;21.00
44044;BME280;29709;52.396;16.796;2022-07-25T13:26:30;101191.03;;;34.64;22.18
44044;BME280;29709;52.396;16.796;2022-07-25T13:30:00;101192.57;;;34.70;21.19
44044;BME280;29709;52.396;16.796;2022-07-25T13:33:03;101179.60;;;34.64;20.62
44044;BME280;29709;52.396;16.796;2022-07-25T13:39:24;101170.99;;;34.78;21.12
44044;BME280;29709;52.396;16.796;2022-07-25T13:42:29;101162.32;;;34.83;20.50
44044;BME280;29709;52.396;16.796;2022-07-25T13:48:41;101161.15;;;34.84;20.55
44044;BME280;29709;52.396;16.796;2022-07-25T13:52:10;101156.34;;;34.70;20.79
44044;BME280;29709;52.396;16.796;2022-07-25T13:55:13;101154.66;;;34.56;20.13
44044;BME280;29709;52.396;16.796;2022-07-25T13:58:17;101143.57;;;34.54;21.23
44044;BME280;29709;52.396;16.796;2022-07-25T14:01:20;101131.97;;;34.51;21.15
44044;BME280;29709;52.396;16.796;2022-07-25T14:04:24;101126.69;;;34.44;20.08
44044;BME280;29709;52.396;16.796;2022-07-25T14:07:27;101117.37;;;34.52;21.41
44044;BME280;29709;52.396;16.796;2022-07-25T14:10:30;101116.48;;;34.65;20.53
44044;BME280;29709;52.396;16.796;2022-07-25T14:13:34;101113.95;;;34.64;20.60
44044;BME280;29709;52.396;16.796;2022-07-25T14:16:38;101121.66;;;34.63;20.14
44044;BME280;29709;52.396;16.796;2022-07-25T14:19:41;101116.62;;;34.47;20.49
44044;BME280;29709;52.396;16.796;2022-07-25T14:23:09;101120.98;;;34.44;20.65
44044;BME280;29709;52.396;16.796;2022-07-25T14:26:12;101106.71;;;34.44;21.49
44044;BME280;29709;52.396;16.796;2022-07-25T14:29:16;101104.78;;;34.53;20.85
44044;BME280;29709;52.396;16.796;2022-07-25T14:32:19;101100.95;;;34.58;21.26
44044;BME280;29709;52.396;16.796;2022-07-25T14:35:23;101103.18;;;34.61;20.53
44044;BME280;29709;52.396;16.796;2022-07-25T14:38:26;101096.98;;;34.45;20.67
44044;BME280;29709;52.396;16.796;2022-07-25T14:41:29;101095.16;;;34.49;21.08
44044;BME280;29709;52.396;16.796;2022-07-25T14:44:32;101095.76;;;34.60;21.07
44044;BME280;29709;52.396;16.796;2022-07-25T14:47:37;101088.31;;;34.50;21.29
44044;BME280;29709;52.396;16.796;2022-07-25T14:50:41;101078.50;;;34.42;20.85
44044;BME280;29709;52.396;16.796;2022-07-25T14:54:09;101075.64;;;34.42;20.90
44044;BME280;29709;52.396;16.796;2022-07-25T14:57:12;101081.03;;;34.44;20.98
44044;BME280;29709;52.396;16.796;2022-07-25T15:00:16;101068.96;;;34.47;20.90
44044;BME280;29709;52.396;16.796;2022-07-25T15:03:19;101064.90;;;34.62;21.26
44044;BME280;29709;52.396;16.796;2022-07-25T15:06:23;101066.77;;;34.66;21.15
44044;BME280;29709;52.396;16.796;2022-07-25T15:09:26;101055.68;;;34.65;20.16
44044;BME280;29709;52.396;16.796;2022-07-25T15:12:29;101048.95;;;34.61;20.86
44044;BME280;29709;52.396;16.796;2022-07-25T15:15:33;101046.13;;;34.69;21.27
44044;BME280;29709;52.396;16.796;2022-07-25T15:18:38;101048.02;;;34.74;21.11
44044;BME280;29709;52.396;16.796;2022-07-25T15:21:41;101042.58;;;34.64;20.56
44044;BME280;29709;52.396;16.796;2022-07-25T15:25:09;101039.97;;;34.54;20.53
44044;BME280;29709;52.396;16.796;2022-07-25T15:28:12;101031.23;;;34.50;21.38
44044;BME280;29709;52.396;16.796;2022-07-25T15:31:15;101030.82;;;34.43;20.80
44044;BME280;29709;52.396;16.796;2022-07-25T15:34:18;101016.67;;;34.38;20.81
44044;BME280;29709;52.396;16.796;2022-07-25T15:37:22;101015.61;;;34.34;21.04
44044;BME280;29709;52.396;16.796;2022-07-25T15:40:25;101016.27;;;34.31;20.98
44044;BME280;29709;52.396;16.796;2022-07-25T15:43:28;101008.66;;;34.26;20.87
44044;BME280;29709;52.396;16.796;2022-07-25T15:46:31;101003.78;;;34.27;21.46
44044;BME280;29709;52.396;16.796;2022-07-25T15:49:35;100997.05;;;34.23;21.35
44044;BME280;29709;52.396;16.796;2022-07-25T15:52:39;100997.16;;;34.18;21.03
44044;BME280;29709;52.396;16.796;2022-07-25T15:56:09;100992.36;;;34.04;21.29
44044;BME280;29709;52.396;16.796;2022-07-25T15:59:12;100991.40;;;34.09;21.36
44044;BME280;29709;52.396;16.796;2022-07-25T16:02:15;100977.85;;;34.14;20.90
44044;BME280;29709;52.396;16.796;2022-07-25T16:05:22;100974.48;;;34.12;21.63
44044;BME280;29709;52.396;16.796;2022-07-25T16:08:25;100979.16;;;34.08;21.88
44044;BME280;29709;52.396;16.796;2022-07-25T16:11:28;100968.04;;;34.07;21.35
44044;BME280;29709;52.396;16.796;2022-07-25T16:14:32;100980.44;;;34.02;21.22
44044;BME280;29709;52.396;16.796;2022-07-25T16:17:35;100970.30;;;33.96;21.40
44044;BME280;29709;52.396;16.796;2022-07-25T16:20:38;100961.23;;;33.94;21.76
44044;BME280;29709;52.396;16.796;2022-07-25T16:27:23;100966.23;;;33.89;21.88
44044;BME280;29709;52.396;16.796;2022-07-25T16:30:26;100962.73;;;33.78;21.91
44044;BME280;29709;52.396;16.796;2022-07-25T16:33:30;100953.48;;;33.58;22.11
44044;BME280;29709;52.396;16.796;2022-07-25T16:36:32;100956.77;;;33.38;21.80
44044;BME280;29709;52.396;16.796;2022-07-25T16:39:37;100942.91;;;33.31;22.57